sensor_id;sensor_type;location;lat;lon;timestamp;pressure;altitude;pressure_sealevel;temperature;humidity
46267;BME280;31998;48.798;15.066;2022-12-04T00:01:28;95780.75;;;2.11;100.00
46267;BME280;31998;48.798;15.066;2022-12-04T00:03:56;95785.13;;;2.17;100.00
46267;BME280;31998;48.798;15.066;2022-12-04T00:06:23;95798.16;;;2.18;100.00
46267;BME280;31998;48.798;15.066;2022-12-04T00:08:49;95781.69;;;2.16;100.00
46267;BME280;31998;48.798;15.066;2022-12-04T00:11:17;95790.22;;;2.18;100.00
46267;BME280;31998;48.798;15.066;2022-12-04T00:13:44;95787.00;;;2.16;100.00
46267;BME280;31998;48.798;15.066;2022-12-04T00:16:12;95794.47;;;2.20;100.00
46267;BME280;31998;48.798;15.066;2022-12-04T00:18:38;95789.41;;;2.18;100.00
46267;BME280;31998;48.798;15.066;2022-12-04T00:21:06;95799.53;;;2.21;100.00
46267;BME280;31998;48.798;15.066;2022-12-04T00:23:32;95777.41;;;2.15;100.00
46267;BME280;31998;48.798;15.066;2022-12-04T00:26:22;95785.81;;;2.24;100.00
46267;BME280;31998;48.798;15.066;2022-12-04T00:28:48;95783.16;;;2.24;100.00
46267;BME280;31998;48.798;15.066;2022-12-04T00:31:18;95783.59;;;2.21;100.00
46267;BME280;31998;48.798;15.066;2022-12-04T00:33:44;95794.03;;;2.23;100.00
46267;BME280;31998;48.798;15.066;2022-12-04T00:36:12;95790.31;;;2.24;100.00
46267;BME280;31998;48.798;15.066;2022-12-04T00:38:38;95793.78;;;2.24;100.00
46267;BME280;31998;48.798;15.066;2022-12-04T00:41:06;95800.69;;;2.25;100.00
46267;BME280;31998;48.798;15.066;2022-12-04T00:43:32;95786.84;;;2.23;100.00
46267;BME280;31998;48.798;15.066;2022-12-04T00:45:58;95793.78;;;2.24;100.00
46267;BME280;31998;48.798;15.066;2022-12-04T00:48:24;95804.16;;;2.26;100.00
46267;BME280;31998;48.798;15.066;2022-12-04T00:50:50;95789.28;;;2.25;100.00
46267;BME280;31998;48.798;15.066;2022-12-04T00:53:15;95799.91;;;2.25;100.00
46267;BME280;31998;48.798;15.066;2022-12-04T00:55:41;95800.69;;;2.25;100.00
46267;BME280;31998;48.798;15.066;2022-12-04T00:58:08;95785.56;;;2.26;100.00
46267;BME280;31998;48.798;15.066;2022-12-04T01:00:37;95779.94;;;2.22;100.00
46267;BME280;31998;48.798;15.066;2022-12-04T01:03:04;95789.28;;;2.25;100.00
46267;BME280;31998;48.798;15.066;2022-12-04T01:05:29;95792.50;;;2.27;100.00
46267;BME280;31998;48.798;15.066;2022-12-04T01:07:55;95789.50;;;2.23;100.00
46267;BME280;31998;48.798;15.066;2022-12-04T01:10:20;95779.22;;;2.27;100.00
46267;BME280;31998;48.798;15.066;2022-12-04T01:12:49;95786.97;;;2.28;100.00
46267;BME280;31998;48.798;15.066;2022-12-04T01:15:16;95779.00;;;2.28;100.00
46267;BME280;31998;48.798;15.066;2022-12-04T01:17:41;95780.63;;;2.29;100.00
46267;BME280;31998;48.798;15.066;2022-12-04T01:20:07;95778.66;;;2.25;100.00
46267;BME280;31998;48.798;15.066;2022-12-04T01:22:32;95787.53;;;2.30;100.00
46267;BME280;31998;48.798;15.066;2022-12-04T01:24:58;95782.69;;;2.27;100.00
46267;BME280;31998;48.798;15.066;2022-12-04T01:27:23;95775.75;;;2.26;100.00
46267;BME280;31998;48.798;15.066;2022-12-04T01:29:49;95781.72;;;2.33;100.00
46267;BME280;31998;48.798;15.066;2022-12-04T01:32:14;95762.16;;;2.23;100.00
46267;BME280;31998;48.798;15.066;2022-12-04T01:34:40;95781.41;;;2.30;100.00
46267;BME280;31998;48.798;15.066;2022-12-04T01:37:05;95784.97;;;2.35;100.00
46267;BME280;31998;48.798;15.066;2022-12-04T01:39:31;95781.19;;;2.31;100.00
46267;BME280;31998;48.798;15.066;2022-12-04T01:41:56;95787.41;;;2.37;100.00
46267;BME280;31998;48.798;15.066;2022-12-04T01:44:24;95792.47;;;2.38;100.00
46267;BME280;31998;48.798;15.066;2022-12-04T01:46:54;95772.16;;;2.32;100.00
46267;BME280;31998;48.798;15.066;2022-12-04T01:49:28;95770.06;;;2.34;100.00
46267;BME280;31998;48.798;15.066;2022-12-04T01:52:01;95783.44;;;2.39;100.00
46267;BME280;31998;48.798;15.066;2022-12-04T01:54:35;95786.09;;;2.39;100.00
46267;BME280;31998;48.798;15.066;2022-12-04T01:57:16;95776.53;;;2.38;100.00
46267;BME280;31998;48.798;15.066;2022-12-04T01:59:49;95777.09;;;2.40;100.00
46267;BME280;31998;48.798;15.066;2022-12-04T02:02:20;95780.34;;;2.42;100.00
46267;BME280;31998;48.798;15.066;2022-12-04T02:04:46;95769.72;;;2.42;100.00
46267;BME280;31998;48.798;15.066;2022-12-04T02:07:12;95769.72;;;2.42;100.00
46267;BME280;31998;48.798;15.066;2022-12-04T02:09:38;95762.22;;;2.39;100.00
46267;BME280;31998;48.798;15.066;2022-12-04T02:15:06;95778.25;;;2.44;100.00
46267;BME280;31998;48.798;15.066;2022-12-04T02:20:21;95791.28;;;2.46;100.00
46267;BME280;31998;48.798;15.066;2022-12-04T02:28:01;95766.56;;;2.45;100.00
46267;BME280;31998;48.798;15.066;2022-12-04T02:30:29;95777.53;;;2.49;100.00
46267;BME280;31998;48.798;15.066;2022-12-04T02:35:39;95787.94;;;2.51;100.00
46267;BME280;31998;48.798;15.066;2022-12-04T02:43:37;95780.53;;;2.53;100.00
46267;BME280;31998;48.798;15.066;2022-12-04T02:46:12;95779.72;;;2.52;100.00
46267;BME280;31998;48.798;15.066;2022-12-04T02:48:40;95776.00;;;2.53;100.00
46267;BME280;31998;48.798;15.066;2022-12-04T02:51:09;95769.91;;;2.53;100.00
46267;BME280;31998;48.798;15.066;2022-12-04T02:53:40;95768.84;;;2.54;100.00
46267;BME280;31998;48.798;15.066;2022-12-04T02:56:12;95764.59;;;2.53;100.00
46267;BME280;31998;48.798;15.066;2022-12-04T02:58:43;95757.66;;;2.52;100.00
46267;BME280;31998;48.798;15.066;2022-12-04T03:01:13;95755.25;;;2.50;100.00
46267;BME280;31998;48.798;15.066;2022-12-04T03:06:27;95769.09;;;2.52;100.00
46267;BME280;31998;48.798;15.066;2022-12-04T03:09:19;95767.34;;;2.58;100.00
46267;BME280;31998;48.798;15.066;2022-12-04T03:11:50;95765.72;;;2.57;100.00
46267;BME280;31998;48.798;15.066;2022-12-04T03:14:21;95756.72;;;2.58;100.00
46267;BME280;31998;48.798;15.066;2022-12-04T03:16:49;95752.44;;;2.57;100.00
46267;BME280;31998;48.798;15.066;2022-12-04T03:19:24;95760.41;;;2.57;100.00
46267;BME280;31998;48.798;15.066;2022-12-04T03:21:55;95736.97;;;2.54;100.00
46267;BME280;31998;48.798;15.066;2022-12-04T03:24:57;95755.91;;;2.57;100.00
46267;BME280;31998;48.798;15.066;2022-12-04T03:30:08;95759.13;;;2.59;100.00
46267;BME280;31998;48.798;15.066;2022-12-04T03:38:16;95744.00;;;2.60;100.00
46267;BME280;31998;48.798;15.066;2022-12-04T03:40:46;95747.44;;;2.60;100.00
46267;BME280;31998;48.798;15.066;2022-12-04T03:45:46;95727.84;;;2.61;100.00
46267;BME280;31998;48.798;15.066;2022-12-04T03:51:20;95731.84;;;2.64;100.00
46267;BME280;31998;48.798;15.066;2022-12-04T03:53:51;95730.00;;;2.64;100.00
46267;BME280;31998;48.798;15.066;2022-12-04T03:56:22;95731.59;;;2.65;100.00
46267;BME280;31998;48.798;15.066;2022-12-04T03:58:54;95731.59;;;2.65;100.00
46267;BME280;31998;48.798;15.066;2022-12-04T04:01:26;95721.78;;;2.66;100.00
46267;BME280;31998;48.798;15.066;2022-12-04T04:03:55;95726.63;;;2.69;100.00
46267;BME280;31998;48.798;15.066;2022-12-04T04:06:27;95723.88;;;2.64;100.00
46267;BME280;31998;48.798;15.066;2022-12-04T04:08:55;95722.59;;;2.66;100.00
46267;BME280;31998;48.798;15.066;2022-12-04T04:11:27;95725.84;;;2.68;100.00
46267;BME280;31998;48.798;15.066;2022-12-04T04:13:59;95734.03;;;2.67;100.00
46267;BME280;31998;48.798;15.066;2022-12-04T04:16:52;95730.34;;;2.68;100.00
46267;BME280;31998;48.798;15.066;2022-12-04T04:19:39;95734.59;;;2.69;100.00
46267;BME280;31998;48.798;15.066;2022-12-04T04:22:26;95730.81;;;2.65;100.00
46267;BME280;31998;48.798;15.066;2022-12-04T04:25:12;95738.88;;;2.70;100.00
46267;BME280;31998;48.798;15.066;2022-12-04T04:27:38;95749.50;;;2.70;100.00
46267;BME280;31998;48.798;15.066;2022-12-04T04:30:05;95747.91;;;2.69;100.00
46267;BME280;31998;48.798;15.066;2022-12-04T04:32:41;95731.84;;;2.64;100.00
46267;BME280;31998;48.798;15.066;2022-12-04T04:35:21;95734.50;;;2.64;100.00
46267;BME280;31998;48.798;15.066;2022-12-04T04:38:01;95736.47;;;2.68;100.00
46267;BME280;31998;48.798;15.066;2022-12-04T04:40:39;95726.06;;;2.67;100.00
46267;BME280;31998;48.798;15.066;2022-12-04T04:43:14;95734.03;;;2.67;100.00
46267;BME280;31998;48.798;15.066;2022-12-04T04:48:48;95742.00;;;2.67;100.00
46267;BME280;31998;48.798;15.066;2022-12-04T04:51:15;95749.97;;;2.67;100.00
46267;BME280;31998;48.798;15.066;2022-12-04T04:53:45;95748.69;;;2.69;100.00
46267;BME280;31998;48.798;15.066;2022-12-04T04:56:11;95759.31;;;2.69;100.00
46267;BME280;31998;48.798;15.066;2022-12-04T04:58:37;95745.13;;;2.64;100.00
46267;BME280;31998;48.798;15.066;2022-12-04T05:01:05;95759.31;;;2.69;100.00
46267;BME280;31998;48.798;15.066;2022-12-04T05:03:31;95747.91;;;2.69;100.00
46267;BME280;31998;48.798;15.066;2022-12-04T05:05:57;95744.19;;;2.70;100.00
46267;BME280;31998;48.798;15.066;2022-12-04T05:08:23;95749.50;;;2.70;100.00
46267;BME280;31998;48.798;15.066;2022-12-04T05:10:48;95736.22;;;2.70;100.00
46267;BME280;31998;48.798;15.066;2022-12-04T05:13:14;95738.88;;;2.70;100.00
46267;BME280;31998;48.798;15.066;2022-12-04T05:15:40;95732.75;;;2.69;100.00
46267;BME280;31998;48.798;15.066;2022-12-04T05:18:06;95731.94;;;2.69;100.00
46267;BME280;31998;48.798;15.066;2022-12-04T05:20:31;95731.94;;;2.69;100.00
46267;BME280;31998;48.798;15.066;2022-12-04T05:22:57;95739.34;;;2.67;100.00
46267;BME280;31998;48.798;15.066;2022-12-04T05:25:22;95746.28;;;2.68;100.00
46267;BME280;31998;48.798;15.066;2022-12-04T05:27:48;95742.09;;;2.72;100.00
46267;BME280;31998;48.798;15.066;2022-12-04T05:30:13;95742.34;;;2.70;100.00
46267;BME280;31998;48.798;15.066;2022-12-04T05:32:39;95747.41;;;2.72;100.00
46267;BME280;31998;48.798;15.066;2022-12-04T05:35:04;95740.38;;;2.66;100.00
46267;BME280;31998;48.798;15.066;2022-12-04T05:37:30;95749.50;;;2.70;100.00
46267;BME280;31998;48.798;15.066;2022-12-04T05:39:55;95744.19;;;2.70;100.00
46267;BME280;31998;48.798;15.066;2022-12-04T05:42:20;95750.06;;;2.72;100.00
46267;BME280;31998;48.798;15.066;2022-12-04T05:44:47;95738.88;;;2.70;100.00
46267;BME280;31998;48.798;15.066;2022-12-04T05:47:13;95743.13;;;2.71;100.00
46267;BME280;31998;48.798;15.066;2022-12-04T05:49:38;95754.31;;;2.73;100.00
46267;BME280;31998;48.798;15.066;2022-12-04T05:52:06;95749.25;;;2.71;100.00
46267;BME280;31998;48.798;15.066;2022-12-04T05:54:32;95751.66;;;2.73;100.00
46267;BME280;31998;48.798;15.066;2022-12-04T05:56:57;95750.66;;;2.74;100.00
46267;BME280;31998;48.798;15.066;2022-12-04T05:59:23;95754.09;;;2.75;100.00
46267;BME280;31998;48.798;15.066;2022-12-04T06:01:48;95755.13;;;2.73;100.00
46267;BME280;31998;48.798;15.066;2022-12-04T06:04:14;95754.31;;;2.73;100.00
46267;BME280;31998;48.798;15.066;2022-12-04T06:06:39;95742.91;;;2.72;100.00
46267;BME280;31998;48.798;15.066;2022-12-04T06:09:06;95752.47;;;2.73;100.00
46267;BME280;31998;48.798;15.066;2022-12-04T06:11:35;95738.38;;;2.73;100.00
46267;BME280;31998;48.798;15.066;2022-12-04T06:14:03;95750.66;;;2.74;100.00
46267;BME280;31998;48.798;15.066;2022-12-04T06:16:35;95762.88;;;2.75;100.00
46267;BME280;31998;48.798;15.066;2022-12-04T06:19:05;95763.69;;;2.76;100.00
46267;BME280;31998;48.798;15.066;2022-12-04T06:21:32;95757.09;;;2.78;100.00
46267;BME280;31998;48.798;15.066;2022-12-04T06:23:57;95769.81;;;2.76;100.00
46267;BME280;31998;48.798;15.066;2022-12-04T06:26:24;95762.53;;;2.71;100.00
46267;BME280;31998;48.798;15.066;2022-12-04T06:28:52;95770.59;;;2.77;100.00
46267;BME280;31998;48.798;15.066;2022-12-04T06:31:19;95776.16;;;2.75;100.00
46267;BME280;31998;48.798;15.066;2022-12-04T06:33:44;95779.28;;;2.72;100.00
46267;BME280;31998;48.798;15.066;2022-12-04T06:36:13;95776.63;;;2.72;100.00
46267;BME280;31998;48.798;15.066;2022-12-04T06:38:40;95782.75;;;2.72;100.00
46267;BME280;31998;48.798;15.066;2022-12-04T06:41:07;95779.78;;;2.69;100.00
46267;BME280;31998;48.798;15.066;2022-12-04T06:43:33;95783.00;;;2.71;100.00
46267;BME280;31998;48.798;15.066;2022-12-04T06:46:05;95782.69;;;2.67;100.00
46267;BME280;31998;48.798;15.066;2022-12-04T06:48:32;95792.00;;;2.70;100.00
46267;BME280;31998;48.798;15.066;2022-12-04T06:51:03;95792.25;;;2.68;100.00
46267;BME280;31998;48.798;15.066;2022-12-04T06:53:29;95789.81;;;2.67;100.00
46267;BME280;31998;48.798;15.066;2022-12-04T06:55:59;95788.78;;;2.68;100.00
46267;BME280;31998;48.798;15.066;2022-12-04T06:58:26;95768.50;;;2.62;100.00
46267;BME280;31998;48.798;15.066;2022-12-04T07:00:51;95776.53;;;2.67;100.00
46267;BME280;31998;48.798;15.066;2022-12-04T07:03:17;95773.06;;;2.66;100.00
46267;BME280;31998;48.798;15.066;2022-12-04T07:05:43;95764.28;;;2.66;100.00
46267;BME280;31998;48.798;15.066;2022-12-04T07:08:08;95774.13;;;2.65;100.00
46267;BME280;31998;48.798;15.066;2022-12-04T07:10:35;95769.06;;;2.64;100.00
46267;BME280;31998;48.798;15.066;2022-12-04T07:13:02;95767.69;;;2.61;100.00
46267;BME280;31998;48.798;15.066;2022-12-04T07:15:28;95772.75;;;2.63;100.00
46267;BME280;31998;48.798;15.066;2022-12-04T07:17:53;95776.47;;;2.62;100.00
46267;BME280;31998;48.798;15.066;2022-12-04T07:20:18;95784.44;;;2.62;100.00
46267;BME280;31998;48.798;15.066;2022-12-04T07:22:44;95781.78;;;2.62;100.00
46267;BME280;31998;48.798;15.066;2022-12-04T07:25:09;95784.44;;;2.62;100.00
46267;BME280;31998;48.798;15.066;2022-12-04T07:27:35;95784.66;;;2.60;100.00
46267;BME280;31998;48.798;15.066;2022-12-04T07:30:00;95784.44;;;2.62;100.00
46267;BME280;31998;48.798;15.066;2022-12-04T07:32:25;95779.13;;;2.62;100.00
46267;BME280;31998;48.798;15.066;2022-12-04T07:34:51;95782.81;;;2.61;100.00
46267;BME280;31998;48.798;15.066;2022-12-04T07:37:16;95781.78;;;2.62;100.00
46267;BME280;31998;48.798;15.066;2022-12-04T07:39:42;95781.78;;;2.62;100.00
46267;BME280;31998;48.798;15.066;2022-12-04T07:42:07;95784.44;;;2.62;100.00
46267;BME280;31998;48.798;15.066;2022-12-04T07:44:32;95791.34;;;2.63;100.00
46267;BME280;31998;48.798;15.066;2022-12-04T07:46:58;95786.03;;;2.63;100.00
46267;BME280;31998;48.798;15.066;2022-12-04T07:49:23;95768.50;;;2.62;100.00
46267;BME280;31998;48.798;15.066;2022-12-04T07:51:49;95753.00;;;2.59;100.00
46267;BME280;31998;48.798;15.066;2022-12-04T07:54:14;95775.16;;;2.64;100.00
46267;BME280;31998;48.798;15.066;2022-12-04T07:56:39;95783.94;;;2.65;100.00
46267;BME280;31998;48.798;15.066;2022-12-04T07:59:05;95784.75;;;2.65;100.00
46267;BME280;31998;48.798;15.066;2022-12-04T08:01:30;95768.50;;;2.62;100.00
46267;BME280;31998;48.798;15.066;2022-12-04T08:03:57;95780.81;;;2.68;100.00
46267;BME280;31998;48.798;15.066;2022-12-04T08:06:24;95762.69;;;2.65;100.00
46267;BME280;31998;48.798;15.066;2022-12-04T08:08:50;95760.84;;;2.65;100.00
46267;BME280;31998;48.798;15.066;2022-12-04T08:11:19;95768.91;;;2.70;100.00
46267;BME280;31998;48.798;15.066;2022-12-04T08:13:46;95769.16;;;2.69;100.00
46267;BME280;31998;48.798;15.066;2022-12-04T08:16:13;95773.72;;;2.73;100.00
46267;BME280;31998;48.798;15.066;2022-12-04T08:18:39;95791.06;;;2.76;100.00
46267;BME280;31998;48.798;15.066;2022-12-04T08:21:10;95781.69;;;2.73;100.00
46267;BME280;31998;48.798;15.066;2022-12-04T08:23:36;95779.94;;;2.79;100.00
46267;BME280;31998;48.798;15.066;2022-12-04T08:26:02;95772.72;;;2.75;100.00
46267;BME280;31998;48.798;15.066;2022-12-04T08:28:28;95784.69;;;2.77;100.00
46267;BME280;31998;48.798;15.066;2022-12-04T08:30:53;95779.94;;;2.79;100.00
46267;BME280;31998;48.798;15.066;2022-12-04T08:33:19;95772.84;;;2.68;100.00
46267;BME280;31998;48.798;15.066;2022-12-04T08:35:44;95761.63;;;2.66;100.00
46267;BME280;31998;48.798;15.066;2022-12-04T08:38:10;95762.69;;;2.65;100.00
46267;BME280;31998;48.798;15.066;2022-12-04T08:40:35;95783.56;;;2.73;100.00
46267;BME280;31998;48.798;15.066;2022-12-04T08:43:00;95787.50;;;2.70;100.00
46267;BME280;31998;48.798;15.066;2022-12-04T08:45:26;95785.66;;;2.71;100.00
46267;BME280;31998;48.798;15.066;2022-12-04T08:47:51;95789.81;;;2.67;100.00
46267;BME280;31998;48.798;15.066;2022-12-04T08:50:16;95808.88;;;2.76;100.00
46267;BME280;31998;48.798;15.066;2022-12-04T08:52:42;95785.09;;;2.69;100.00
46267;BME280;31998;48.798;15.066;2022-12-04T08:55:07;95795.81;;;2.74;100.00
46267;BME280;31998;48.798;15.066;2022-12-04T08:57:33;95818.09;;;2.73;100.00
46267;BME280;31998;48.798;15.066;2022-12-04T08:59:58;95807.00;;;2.76;100.00
46267;BME280;31998;48.798;15.066;2022-12-04T09:02:24;95809.19;;;2.79;100.00
46267;BME280;31998;48.798;15.066;2022-12-04T09:04:49;95820.41;;;2.81;100.00
46267;BME280;31998;48.798;15.066;2022-12-04T09:07:14;95794.56;;;2.65;100.00
46267;BME280;31998;48.798;15.066;2022-12-04T09:09:40;95828.28;;;2.76;100.00
46267;BME280;31998;48.798;15.066;2022-12-04T09:12:05;95811.97;;;2.72;100.00
46267;BME280;31998;48.798;15.066;2022-12-04T09:14:31;95807.16;;;2.69;100.00
46267;BME280;31998;48.798;15.066;2022-12-04T09:16:56;95831.50;;;2.78;100.00
46267;BME280;31998;48.798;15.066;2022-12-04T09:19:21;95834.16;;;2.78;100.00
46267;BME280;31998;48.798;15.066;2022-12-04T09:21:47;95826.66;;;2.75;100.00
46267;BME280;31998;48.798;15.066;2022-12-04T09:24:12;95815.94;;;2.70;100.00
46267;BME280;31998;48.798;15.066;2022-12-04T09:26:38;95827.94;;;2.72;100.00
46267;BME280;31998;48.798;15.066;2022-12-04T09:29:03;95826.06;;;2.73;100.00
46267;BME280;31998;48.798;15.066;2022-12-04T09:31:30;95823.91;;;2.70;100.00
46267;BME280;31998;48.798;15.066;2022-12-04T09:33:59;95811.06;;;2.67;100.00
46267;BME280;31998;48.798;15.066;2022-12-04T09:36:25;95803.09;;;2.67;100.00
46267;BME280;31998;48.798;15.066;2022-12-04T09:38:52;95811.19;;;2.72;100.00
46267;BME280;31998;48.798;15.066;2022-12-04T09:41:27;95814.41;;;2.74;100.00
46267;BME280;31998;48.798;15.066;2022-12-04T09:46:42;95817.16;;;2.79;100.00
46267;BME280;31998;48.798;15.066;2022-12-04T09:49:18;95818.19;;;2.78;100.00
46267;BME280;31998;48.798;15.066;2022-12-04T09:51:45;95810.22;;;2.78;100.00
46267;BME280;31998;48.798;15.066;2022-12-04T09:54:15;95812.19;;;2.83;100.00
46267;BME280;31998;48.798;15.066;2022-12-04T09:56:44;95807.44;;;2.85;100.00
46267;BME280;31998;48.798;15.066;2022-12-04T09:59:22;95804.47;;;2.81;100.00
46267;BME280;31998;48.798;15.066;2022-12-04T10:02:01;95796.94;;;2.78;100.00
46267;BME280;31998;48.798;15.066;2022-12-04T10:04:28;95784.47;;;2.79;100.00
46267;BME280;31998;48.798;15.066;2022-12-04T10:07:09;95790.25;;;2.76;100.00
46267;BME280;31998;48.798;15.066;2022-12-04T10:12:48;95799.03;;;2.76;100.00
46267;BME280;31998;48.798;15.066;2022-12-04T10:26:16;95807.56;;;2.78;100.00
46267;BME280;31998;48.798;15.066;2022-12-04T10:28:52;95804.25;;;2.71;100.00
46267;BME280;31998;48.798;15.066;2022-12-04T10:31:19;95803.31;;;2.77;100.00
46267;BME280;31998;48.798;15.066;2022-12-04T10:33:51;95796.03;;;2.72;100.00
46267;BME280;31998;48.798;15.066;2022-12-04T10:36:19;95784.28;;;2.68;100.00
46267;BME280;31998;48.798;15.066;2022-12-04T10:38:49;95788.22;;;2.66;100.00
46267;BME280;31998;48.798;15.066;2022-12-04T10:41:56;95772.28;;;2.66;100.00
46267;BME280;31998;48.798;15.066;2022-12-04T10:44:23;95778.06;;;2.63;100.00
46267;BME280;31998;48.798;15.066;2022-12-04T10:46:53;95771.72;;;2.64;100.00
46267;BME280;31998;48.798;15.066;2022-12-04T10:49:26;95768.50;;;2.62;100.00
46267;BME280;31998;48.798;15.066;2022-12-04T10:51:52;95770.09;;;2.63;100.00
46267;BME280;31998;48.798;15.066;2022-12-04T10:54:26;95768.50;;;2.62;100.00
46267;BME280;31998;48.798;15.066;2022-12-04T10:56:57;95775.41;;;2.63;100.00
46267;BME280;31998;48.798;15.066;2022-12-04T10:59:22;95760.72;;;2.60;100.00
46267;BME280;31998;48.798;15.066;2022-12-04T11:01:50;95768.00;;;2.65;100.00
46267;BME280;31998;48.798;15.066;2022-12-04T11:04:21;95780.72;;;2.63;100.00
46267;BME280;31998;48.798;15.066;2022-12-04T11:06:48;95782.34;;;2.64;100.00
46267;BME280;31998;48.798;15.066;2022-12-04T11:09:21;95784.44;;;2.62;100.00
46267;BME280;31998;48.798;15.066;2022-12-04T11:11:48;95772.19;;;2.61;100.00
46267;BME280;31998;48.798;15.066;2022-12-04T11:14:16;95762.38;;;2.61;100.00
46267;BME280;31998;48.798;15.066;2022-12-04T11:16:44;95763.19;;;2.62;100.00
46267;BME280;31998;48.798;15.066;2022-12-04T11:19:27;95749.13;;;2.50;100.00
46267;BME280;31998;48.798;15.066;2022-12-04T11:21:55;95771.03;;;2.57;100.00
46267;BME280;31998;48.798;15.066;2022-12-04T11:24:28;95768.94;;;2.59;100.00
46267;BME280;31998;48.798;15.066;2022-12-04T11:26:55;95787.31;;;2.60;100.00
46267;BME280;31998;48.798;15.066;2022-12-04T11:29:28;95771.03;;;2.57;100.00
46267;BME280;31998;48.798;15.066;2022-12-04T11:31:55;95766.78;;;2.56;100.00
46267;BME280;31998;48.798;15.066;2022-12-04T11:34:24;95776.59;;;2.55;100.00
46267;BME280;31998;48.798;15.066;2022-12-04T11:36:54;95757.66;;;2.52;100.00
46267;BME280;31998;48.798;15.066;2022-12-04T11:41:59;95777.16;;;2.57;100.00
46267;BME280;31998;48.798;15.066;2022-12-04T11:44:27;95760.31;;;2.52;100.00
46267;BME280;31998;48.798;15.066;2022-12-04T11:46:55;95768.78;;;2.49;100.00
46267;BME280;31998;48.798;15.066;2022-12-04T11:49:22;95778.34;;;2.50;100.00
46267;BME280;31998;48.798;15.066;2022-12-04T11:52:21;95778.81;;;2.47;100.00
46267;BME280;31998;48.798;15.066;2022-12-04T11:57:48;95772.44;;;2.48;100.00
46267;BME280;31998;48.798;15.066;2022-12-04T12:00:22;95764.16;;;2.44;100.00
46267;BME280;31998;48.798;15.066;2022-12-04T12:24:30;95749.41;;;2.36;100.00
46267;BME280;31998;48.798;15.066;2022-12-04T12:30:03;95749.41;;;2.36;100.00
46267;BME280;31998;48.798;15.066;2022-12-04T12:35:42;95771.59;;;2.30;100.00
46267;BME280;31998;48.798;15.066;2022-12-04T12:38:24;95766.19;;;2.25;100.00
46267;BME280;31998;48.798;15.066;2022-12-04T12:40:55;95757.66;;;2.23;100.00
46267;BME280;31998;48.798;15.066;2022-12-04T12:43:28;95753.84;;;2.19;100.00
46267;BME280;31998;48.798;15.066;2022-12-04T12:46:01;95747.38;;;2.15;100.00
46267;BME280;31998;48.798;15.066;2022-12-04T12:57:56;95742.19;;;2.08;100.00
46267;BME280;31998;48.798;15.066;2022-12-04T13:00:24;95712.94;;;2.03;100.00
46267;BME280;31998;48.798;15.066;2022-12-04T13:03:01;95725.47;;;2.08;100.00
46267;BME280;31998;48.798;15.066;2022-12-04T13:05:38;95730.22;;;2.06;100.00
46267;BME280;31998;48.798;15.066;2022-12-04T13:10:40;95729.41;;;2.05;100.00
46267;BME280;31998;48.798;15.066;2022-12-04T13:13:22;95722.75;;;2.03;100.00
46267;BME280;31998;48.798;15.066;2022-12-04T13:16:05;95719.97;;;1.98;100.00
46267;BME280;31998;48.798;15.066;2022-12-04T13:18:43;95733.69;;;1.95;100.00
46267;BME280;31998;48.798;15.066;2022-12-04T13:21:28;95735.91;;;1.98;100.00
46267;BME280;31998;48.798;15.066;2022-12-04T13:26:49;95731.41;;;1.98;100.00
46267;BME280;31998;48.798;15.066;2022-12-04T13:38:45;95729.69;;;1.92;100.00
46267;BME280;31998;48.798;15.066;2022-12-04T13:41:19;95741.34;;;1.91;100.00
46267;BME280;31998;48.798;15.066;2022-12-04T13:43:47;95732.78;;;1.89;100.00
46267;BME280;31998;48.798;15.066;2022-12-04T13:46:32;95741.00;;;1.87;100.00
46267;BME280;31998;48.798;15.066;2022-12-04T13:51:44;95741.47;;;1.84;100.00
46267;BME280;31998;48.798;15.066;2022-12-04T13:56:35;95737.53;;;1.75;100.00
46267;BME280;31998;48.798;15.066;2022-12-04T13:59:59;95734.44;;;1.78;100.00
46267;BME280;31998;48.798;15.066;2022-12-04T14:01:53;95747.69;;;1.78;100.00
46267;BME280;31998;48.798;15.066;2022-12-04T14:04:26;95734.69;;;1.77;100.00
46267;BME280;31998;48.798;15.066;2022-12-04T14:06:53;95742.41;;;1.78;100.00
46267;BME280;31998;48.798;15.066;2022-12-04T14:09:32;95735.13;;;1.74;100.00
46267;BME280;31998;48.798;15.066;2022-12-04T14:12:02;95741.72;;;1.71;100.00
46267;BME280;31998;48.798;15.066;2022-12-04T14:14:38;95741.72;;;1.71;100.00
46267;BME280;31998;48.798;15.066;2022-12-04T14:17:16;95730.75;;;1.68;100.00
46267;BME280;31998;48.798;15.066;2022-12-04T14:19:44;95757.03;;;1.69;100.00
46267;BME280;31998;48.798;15.066;2022-12-04T14:22:42;95749.06;;;1.69;100.00
46267;BME280;31998;48.798;15.066;2022-12-04T14:30:13;95730.50;;;1.69;100.00
46267;BME280;31998;48.798;15.066;2022-12-04T14:32:41;95727.19;;;1.62;100.00
46267;BME280;31998;48.798;15.066;2022-12-04T14:35:13;95736.53;;;1.65;100.00
46267;BME280;31998;48.798;15.066;2022-12-04T14:37:51;95731.22;;;1.65;100.00
46267;BME280;31998;48.798;15.066;2022-12-04T14:40:23;95732.47;;;1.62;100.00
46267;BME280;31998;48.798;15.066;2022-12-04T14:42:49;95720.84;;;1.63;100.00
46267;BME280;31998;48.798;15.066;2022-12-04T14:45:55;95717.50;;;1.56;100.00
46267;BME280;31998;48.798;15.066;2022-12-04T14:51:32;95726.03;;;1.58;100.00
46267;BME280;31998;48.798;15.066;2022-12-04T14:59:22;95725.44;;;1.56;100.00
46267;BME280;31998;48.798;15.066;2022-12-04T15:01:50;95734.69;;;1.53;100.00
46267;BME280;31998;48.798;15.066;2022-12-04T15:04:29;95733.88;;;1.53;100.00
46267;BME280;31998;48.798;15.066;2022-12-04T15:06:57;95735.97;;;1.51;100.00
46267;BME280;31998;48.798;15.066;2022-12-04T15:09:23;95732.50;;;1.50;100.00
46267;BME280;31998;48.798;15.066;2022-12-04T15:12:17;95721.06;;;1.50;100.00
46267;BME280;31998;48.798;15.066;2022-12-04T15:17:29;95722.03;;;1.44;100.00